Time;durP1;ratioP1;P1;durP2;ratioP2;P2;SDS_P1;SDS_P2;PMS_P1;PMS_P2;Temp;Humidity;BMP_temperature;BMP_pressure;BME280_temperature;BME280_humidity;BME280_pressure;Samples;Min_cycle;Max_cycle;Signal;HPM_P1;HPM_P2
2023/11/16 00:01:30;;;;;;;7.47;3.00;;;;;;;;;;5062858;28;20434;-79
2023/11/16 00:03:59;;;;;;;9.77;3.33;;;;;;;;;;5063413;28;20702;-79
2023/11/16 00:06:32;;;;;;;9.30;3.33;;;;;;;;;;5064713;28;20553;-77
2023/11/16 00:09:00;;;;;;;7.50;3.53;;;;;;;;;;5063812;28;20442;-77
2023/11/16 00:11:29;;;;;;;9.47;3.50;;;;;;;;;;5063414;28;20469;-77
2023/11/16 00:13:57;;;;;;;9.57;3.93;;;;;;;;;;5063793;28;20461;-78
2023/11/16 00:16:32;;;;;;;14.10;3.30;;;;;;;;;;5063579;28;20487;-77
2023/11/16 00:19:02;;;;;;;8.57;3.70;;;;;;;;;;5067658;28;20477;-78
2023/11/16 00:21:30;;;;;;;12.27;3.77;;;;;;;;;;5067064;28;20517;-79
2023/11/16 00:23:58;;;;;;;12.70;4.00;;;;;;;;;;5065882;28;20458;-80
2023/11/16 00:26:33;;;;;;;11.57;3.47;;;;;;;;;;5064919;28;20461;-79
2023/11/16 00:29:01;;;;;;;11.97;4.13;;;;;;;;;;5064776;28;20453;-80
2023/11/16 00:31:30;;;;;;;11.43;4.47;;;;;;;;;;5063920;28;20544;-79
2023/11/16 00:33:58;;;;;;;11.43;4.40;;;;;;;;;;5066283;28;20488;-79
2023/11/16 00:36:30;;;;;;;9.00;3.23;;;;;;;;;;5067083;28;20438;-79
2023/11/16 00:38:58;;;;;;;5.80;2.63;;;;;;;;;;5063332;28;20505;-79
2023/11/16 00:41:26;;;;;;;15.60;3.43;;;;;;;;;;5062496;28;20468;-79
2023/11/16 00:43:54;;;;;;;14.60;3.87;;;;;;;;;;5064780;28;20478;-79
2023/11/16 00:46:22;;;;;;;15.40;3.93;;;;;;;;;;5066336;28;20446;-79
2023/11/16 00:48:50;;;;;;;9.37;3.80;;;;;;;;;;5065347;28;20450;-79
2023/11/16 00:51:17;;;;;;;6.30;2.97;;;;;;;;;;5066549;28;20515;-79
2023/11/16 00:53:48;;;;;;;6.57;2.47;;;;;;;;;;5065057;28;20464;-78
2023/11/16 00:56:18;;;;;;;6.17;2.87;;;;;;;;;;5063313;28;20493;-79
2023/11/16 00:58:47;;;;;;;8.17;2.67;;;;;;;;;;5064087;28;20473;-80
2023/11/16 01:01:18;;;;;;;5.50;2.60;;;;;;;;;;5064457;28;20474;-80
2023/11/16 01:03:46;;;;;;;12.63;3.57;;;;;;;;;;5066062;28;20467;-80
2023/11/16 01:06:14;;;;;;;7.20;2.60;;;;;;;;;;5062737;28;20457;-78
2023/11/16 01:08:46;;;;;;;9.70;2.90;;;;;;;;;;5066078;28;20874;-78
2023/11/16 01:11:16;;;;;;;7.50;3.40;;;;;;;;;;5067738;28;20445;-78
2023/11/16 01:13:44;;;;;;;5.73;2.90;;;;;;;;;;5064209;28;20848;-78
2023/11/16 01:16:14;;;;;;;11.87;3.10;;;;;;;;;;5066774;28;20446;-79
2023/11/16 01:18:46;;;;;;;9.10;2.73;;;;;;;;;;5064483;28;20468;-79
2023/11/16 01:21:14;;;;;;;7.37;3.23;;;;;;;;;;5066419;28;20469;-78
2023/11/16 01:23:44;;;;;;;8.03;3.20;;;;;;;;;;5066664;28;20465;-80
2023/11/16 01:26:15;;;;;;;11.53;2.47;;;;;;;;;;5065272;28;20469;-78
2023/11/16 01:28:47;;;;;;;4.13;2.20;;;;;;;;;;5066180;28;20462;-79
2023/11/16 01:31:15;;;;;;;10.97;2.97;;;;;;;;;;5065263;28;20468;-78
2023/11/16 01:33:44;;;;;;;11.73;4.33;;;;;;;;;;5064899;28;20511;-79
2023/11/16 01:36:12;;;;;;;6.60;3.10;;;;;;;;;;5063251;28;20450;-78
2023/11/16 01:38:40;;;;;;;8.07;2.77;;;;;;;;;;5064448;28;20527;-78
2023/11/16 01:41:09;;;;;;;13.23;3.97;;;;;;;;;;5064476;28;20468;-78
2023/11/16 01:43:37;;;;;;;6.30;2.70;;;;;;;;;;5066889;28;20457;-79
2023/11/16 01:46:07;;;;;;;5.03;2.50;;;;;;;;;;5065703;28;20461;-79
2023/11/16 01:48:35;;;;;;;13.03;3.63;;;;;;;;;;5064656;28;20449;-80
2023/11/16 01:51:05;;;;;;;7.80;3.43;;;;;;;;;;5066775;28;20463;-80
2023/11/16 01:53:34;;;;;;;10.87;3.40;;;;;;;;;;5063088;28;20449;-79
2023/11/16 01:56:03;;;;;;;8.60;3.20;;;;;;;;;;5064545;28;20475;-79
2023/11/16 01:58:33;;;;;;;8.70;2.70;;;;;;;;;;5064682;28;20551;-80
2023/11/16 02:01:02;;;;;;;9.00;2.80;;;;;;;;;;5064079;28;20938;-79
2023/11/16 02:03:31;;;;;;;5.93;2.77;;;;;;;;;;5063985;28;20449;-79
2023/11/16 02:05:59;;;;;;;8.47;3.57;;;;;;;;;;5063262;28;20464;-80
2023/11/16 02:08:27;;;;;;;6.77;3.30;;;;;;;;;;5065013;28;20503;-79
2023/11/16 02:10:55;;;;;;;6.13;2.87;;;;;;;;;;5064896;28;20511;-79
2023/11/16 02:13:29;;;;;;;6.80;2.83;;;;;;;;;;5065155;28;20458;-79
2023/11/16 02:15:57;;;;;;;13.33;4.20;;;;;;;;;;5064429;28;20464;-80
2023/11/16 02:18:25;;;;;;;6.80;3.03;;;;;;;;;;5065966;28;20548;-77
2023/11/16 02:20:54;;;;;;;7.47;2.80;;;;;;;;;;5062807;28;20748;-78
2023/11/16 02:23:24;;;;;;;9.73;3.20;;;;;;;;;;5063546;28;20464;-77
2023/11/16 02:25:52;;;;;;;6.60;2.83;;;;;;;;;;5065002;28;20498;-78
2023/11/16 02:28:22;;;;;;;5.17;2.33;;;;;;;;;;5065793;28;20469;-78
2023/11/16 02:30:51;;;;;;;13.70;3.37;;;;;;;;;;5066200;28;20870;-78
2023/11/16 02:33:19;;;;;;;6.13;3.30;;;;;;;;;;5061923;28;20548;-79
2023/11/16 02:35:48;;;;;;;7.67;2.60;;;;;;;;;;5063249;28;20456;-78
2023/11/16 02:38:19;;;;;;;4.50;2.70;;;;;;;;;;5064114;28;20883;-78
2023/11/16 02:40:51;;;;;;;9.30;2.30;;;;;;;;;;5063570;28;20923;-78
2023/11/16 02:43:20;;;;;;;10.37;2.17;;;;;;;;;;5061759;28;20827;-79
2023/11/16 02:45:48;;;;;;;6.97;2.00;;;;;;;;;;5064085;28;20438;-78
2023/11/16 02:48:16;;;;;;;9.40;3.50;;;;;;;;;;5065592;28;20533;-80
2023/11/16 02:50:44;;;;;;;6.67;2.30;;;;;;;;;;5067666;28;20531;-79
2023/11/16 02:53:12;;;;;;;7.17;1.90;;;;;;;;;;5068488;28;20472;-78
2023/11/16 02:55:39;;;;;;;6.10;4.80;;;;;;;;;;5068345;28;20457;-79
2023/11/16 02:58:09;;;;;;;8.70;2.10;;;;;;;;;;5071017;28;20452;-77
2023/11/16 03:00:37;;;;;;;5.73;2.80;;;;;;;;;;5068048;28;20493;-79
2023/11/16 03:03:08;;;;;;;5.03;1.60;;;;;;;;;;5068994;28;20452;-78
2023/11/16 03:05:35;;;;;;;8.23;2.40;;;;;;;;;;5070685;28;20467;-78
2023/11/16 03:08:03;;;;;;;5.83;1.60;;;;;;;;;;5068618;28;20460;-78
2023/11/16 03:10:34;;;;;;;5.63;2.30;;;;;;;;;;5069566;28;20454;-78
2023/11/16 03:13:03;;;;;;;8.00;2.00;;;;;;;;;;5070693;28;20857;-78
2023/11/16 03:15:33;;;;;;;5.80;1.50;;;;;;;;;;5068422;28;20444;-77
2023/11/16 03:18:08;;;;;;;4.63;2.40;;;;;;;;;;5066114;28;20464;-77
2023/11/16 03:20:35;;;;;;;6.80;2.23;;;;;;;;;;5070033;28;20977;-78
2023/11/16 03:23:04;;;;;;;10.23;2.57;;;;;;;;;;5070364;28;20457;-79
2023/11/16 03:25:33;;;;;;;6.50;2.10;;;;;;;;;;5069138;28;20458;-78
2023/11/16 03:28:01;;;;;;;4.30;1.70;;;;;;;;;;5069168;28;20802;-78
2023/11/16 03:30:29;;;;;;;4.40;1.13;;;;;;;;;;5066564;28;20496;-77
2023/11/16 03:32:58;;;;;;;6.87;1.53;;;;;;;;;;5067033;28;20461;-78
2023/11/16 03:35:27;;;;;;;6.30;1.27;;;;;;;;;;5069727;28;20438;-77
2023/11/16 03:37:54;;;;;;;3.07;1.43;;;;;;;;;;5068261;28;20561;-77
2023/11/16 03:40:22;;;;;;;7.80;1.27;;;;;;;;;;5066584;28;20485;-78
2023/11/16 03:42:50;;;;;;;4.43;1.57;;;;;;;;;;5068088;28;20446;-79
2023/11/16 03:45:18;;;;;;;7.80;1.47;;;;;;;;;;5067147;28;20753;-78
2023/11/16 03:47:45;;;;;;;4.90;1.23;;;;;;;;;;5066593;28;20480;-79
2023/11/16 03:50:17;;;;;;;5.13;2.17;;;;;;;;;;5068590;28;20552;-79
2023/11/16 03:52:45;;;;;;;5.00;1.43;;;;;;;;;;5069027;28;20520;-79
2023/11/16 03:55:14;;;;;;;5.40;1.67;;;;;;;;;;5069366;28;20558;-80
2023/11/16 03:57:41;;;;;;;8.93;1.37;;;;;;;;;;5067719;28;20513;-80
2023/11/16 04:00:10;;;;;;;10.10;3.27;;;;;;;;;;5069313;28;20523;-80
2023/11/16 04:02:37;;;;;;;5.70;1.30;;;;;;;;;;5067325;28;20488;-80
2023/11/16 04:05:06;;;;;;;5.70;1.43;;;;;;;;;;5063962;28;20453;-80
2023/11/16 04:07:35;;;;;;;3.80;1.13;;;;;;;;;;5063317;28;20485;-80
2023/11/16 04:10:10;;;;;;;5.47;1.40;;;;;;;;;;5063940;28;20453;-79
2023/11/16 04:12:40;;;;;;;4.23;0.80;;;;;;;;;;5066453;28;20846;-79
2023/11/16 04:15:09;;;;;;;2.53;1.13;;;;;;;;;;5067606;28;20450;-79
2023/11/16 04:17:38;;;;;;;2.70;0.90;;;;;;;;;;5068117;28;20465;-79
2023/11/16 04:20:09;;;;;;;3.00;0.97;;;;;;;;;;5067466;28;20591;-79
2023/11/16 04:22:39;;;;;;;4.90;1.10;;;;;;;;;;5067116;28;20533;-79
2023/11/16 04:25:11;;;;;;;5.43;1.10;;;;;;;;;;5065911;28;20471;-77
2023/11/16 04:27:39;;;;;;;5.13;1.10;;;;;;;;;;5064360;28;20454;-78
2023/11/16 04:30:11;;;;;;;4.40;0.80;;;;;;;;;;5063228;28;20540;-79
2023/11/16 04:32:42;;;;;;;4.60;0.70;;;;;;;;;;5065676;28;20441;-80
2023/11/16 04:35:10;;;;;;;4.13;0.90;;;;;;;;;;5063725;28;20468;-80
2023/11/16 04:37:40;;;;;;;4.33;0.60;;;;;;;;;;5065974;28;20580;-79
2023/11/16 04:40:09;;;;;;;3.20;1.20;;;;;;;;;;5062642;28;20567;-79
2023/11/16 04:42:39;;;;;;;3.03;1.00;;;;;;;;;;5063241;28;20458;-79
2023/11/16 04:45:09;;;;;;;3.73;1.00;;;;;;;;;;5066070;28;20449;-80
2023/11/16 04:47:37;;;;;;;2.80;0.77;;;;;;;;;;5063785;28;20473;-80
2023/11/16 04:50:07;;;;;;;2.87;0.73;;;;;;;;;;5065188;28;20430;-80
2023/11/16 04:52:34;;;;;;;1.80;0.60;;;;;;;;;;5062468;28;20548;-80
2023/11/16 04:55:03;;;;;;;2.30;0.80;;;;;;;;;;5064807;28;20701;-80
2023/11/16 04:57:31;;;;;;;2.90;0.60;;;;;;;;;;5067809;28;20457;-79
2023/11/16 04:59:59;;;;;;;2.07;0.50;;;;;;;;;;5065724;28;20489;-78
2023/11/16 05:02:27;;;;;;;2.57;0.50;;;;;;;;;;5066956;28;20458;-79
2023/11/16 05:04:55;;;;;;;2.20;0.77;;;;;;;;;;5067969;28;20460;-78
2023/11/16 05:07:23;;;;;;;3.90;0.70;;;;;;;;;;5067529;28;20446;-79
2023/11/16 05:09:50;;;;;;;2.43;0.53;;;;;;;;;;5067741;28;20457;-79
2023/11/16 05:12:19;;;;;;;3.20;1.10;;;;;;;;;;5064688;28;20461;-79
2023/11/16 05:14:47;;;;;;;2.30;0.50;;;;;;;;;;5066781;28;20468;-79
2023/11/16 05:17:15;;;;;;;2.10;0.70;;;;;;;;;;5067000;28;20460;-79
2023/11/16 05:19:42;;;;;;;3.27;0.63;;;;;;;;;;5066067;28;20528;-79
2023/11/16 05:22:11;;;;;;;3.60;0.60;;;;;;;;;;5066719;28;20441;-79
2023/11/16 05:24:38;;;;;;;4.17;0.70;;;;;;;;;;5065823;28;20483;-80
2023/11/16 05:27:07;;;;;;;1.90;0.70;;;;;;;;;;5064993;28;20524;-78
2023/11/16 05:29:36;;;;;;;2.50;0.80;;;;;;;;;;5063054;28;20776;-78
2023/11/16 05:32:04;;;;;;;3.60;0.67;;;;;;;;;;5063300;28;20441;-78
2023/11/16 05:34:32;;;;;;;2.50;0.60;;;;;;;;;;5063827;28;20467;-79
2023/11/16 05:36:59;;;;;;;1.80;0.50;;;;;;;;;;5060988;28;20614;-78
2023/11/16 05:39:27;;;;;;;2.93;0.60;;;;;;;;;;5062314;28;20473;-78
2023/11/16 05:41:55;;;;;;;2.73;0.60;;;;;;;;;;5062491;28;20504;-79
2023/11/16 05:44:23;;;;;;;2.17;0.50;;;;;;;;;;5061736;28;20796;-79
2023/11/16 05:46:52;;;;;;;4.60;0.60;;;;;;;;;;5059738;28;20460;-79
2023/11/16 05:49:20;;;;;;;2.03;0.60;;;;;;;;;;5059689;28;20784;-80
2023/11/16 05:51:48;;;;;;;2.30;0.80;;;;;;;;;;5062885;28;20484;-79
2023/11/16 05:54:17;;;;;;;1.90;0.60;;;;;;;;;;5060648;28;20745;-79
2023/11/16 05:56:48;;;;;;;2.53;0.67;;;;;;;;;;5062076;28;20693;-79
2023/11/16 05:59:16;;;;;;;2.70;0.60;;;;;;;;;;5061066;28;20480;-79
2023/11/16 06:01:45;;;;;;;5.17;0.70;;;;;;;;;;5062854;28;20573;-79
2023/11/16 06:04:14;;;;;;;3.00;0.67;;;;;;;;;;5059664;28;20544;-79
2023/11/16 06:06:42;;;;;;;2.20;0.70;;;;;;;;;;5072652;28;20464;-78
2023/11/16 06:09:10;;;;;;;2.43;0.73;;;;;;;;;;5100894;28;20451;-79
2023/11/16 06:11:38;;;;;;;1.60;0.50;;;;;;;;;;5096170;28;20448;-78
2023/11/16 06:14:08;;;;;;;1.50;0.43;;;;;;;;;;5096801;28;20457;-79
2023/11/16 06:16:40;;;;;;;2.20;0.80;;;;;;;;;;5097183;28;20487;-78
2023/11/16 06:19:10;;;;;;;1.50;0.50;;;;;;;;;;5094781;28;20766;-79
2023/11/16 06:21:40;;;;;;;2.17;0.60;;;;;;;;;;5096612;28;20578;-79
2023/11/16 06:24:08;;;;;;;1.63;0.57;;;;;;;;;;5099449;28;20531;-79
2023/11/16 06:26:38;;;;;;;1.50;0.50;;;;;;;;;;5101579;28;20450;-78
2023/11/16 06:29:14;;;;;;;2.37;0.63;;;;;;;;;;5102095;28;20517;-77
2023/11/16 06:31:42;;;;;;;2.13;0.60;;;;;;;;;;5101280;28;20484;-78
2023/11/16 06:34:10;;;;;;;3.00;0.97;;;;;;;;;;5101847;28;20700;-77
2023/11/16 06:36:41;;;;;;;8.37;0.70;;;;;;;;;;5098852;28;20447;-80
2023/11/16 06:39:09;;;;;;;1.60;0.50;;;;;;;;;;5101604;28;20475;-78
2023/11/16 06:41:37;;;;;;;2.20;0.80;;;;;;;;;;5098447;28;20738;-78
2023/11/16 06:44:05;;;;;;;2.00;0.90;;;;;;;;;;5095251;28;20507;-78
2023/11/16 06:46:34;;;;;;;1.90;0.73;;;;;;;;;;5100071;28;20474;-78
2023/11/16 06:49:07;;;;;;;6.93;1.23;;;;;;;;;;5096263;28;20533;-78
2023/11/16 06:51:35;;;;;;;4.17;0.70;;;;;;;;;;5099197;28;20486;-78
2023/11/16 06:54:05;;;;;;;3.00;0.80;;;;;;;;;;5092991;28;21043;-79
2023/11/16 06:56:33;;;;;;;2.00;0.70;;;;;;;;;;5095814;28;20471;-78
2023/11/16 06:59:07;;;;;;;2.00;0.77;;;;;;;;;;5090750;28;20724;-77
2023/11/16 07:01:35;;;;;;;2.13;0.60;;;;;;;;;;5088811;28;20989;-79
2023/11/16 07:04:02;;;;;;;4.23;0.70;;;;;;;;;;5098787;28;20892;-78
2023/11/16 07:06:37;;;;;;;1.90;0.70;;;;;;;;;;5099676;28;20605;-78
2023/11/16 07:09:07;;;;;;;1.97;0.50;;;;;;;;;;5098026;28;20451;-77
2023/11/16 07:11:34;;;;;;;2.90;0.83;;;;;;;;;;5097628;28;20621;-79
2023/11/16 07:14:02;;;;;;;1.73;0.67;;;;;;;;;;5097003;28;20474;-77
2023/11/16 07:16:30;;;;;;;1.50;0.50;;;;;;;;;;5097694;28;20435;-80
2023/11/16 07:18:59;;;;;;;2.40;0.80;;;;;;;;;;5099249;28;20817;-79
2023/11/16 07:21:33;;;;;;;1.73;0.63;;;;;;;;;;5096425;28;20909;-80
2023/11/16 07:24:03;;;;;;;3.00;0.67;;;;;;;;;;5100814;28;20459;-78
2023/11/16 07:26:32;;;;;;;4.13;0.93;;;;;;;;;;5098255;28;20451;-79
2023/11/16 07:29:00;;;;;;;1.70;0.70;;;;;;;;;;5098772;28;20454;-78
2023/11/16 07:31:29;;;;;;;1.57;0.70;;;;;;;;;;5097568;28;20554;-79
2023/11/16 07:33:58;;;;;;;2.50;0.83;;;;;;;;;;5096928;28;20773;-77
2023/11/16 07:36:30;;;;;;;1.60;0.60;;;;;;;;;;5096467;28;20489;-78
2023/11/16 07:38:59;;;;;;;3.83;1.07;;;;;;;;;;5095340;28;20601;-80
2023/11/16 07:41:29;;;;;;;3.83;0.80;;;;;;;;;;5099161;28;20604;-79
2023/11/16 07:43:59;;;;;;;1.90;0.70;;;;;;;;;;5099961;28;20448;-79
2023/11/16 07:46:30;;;;;;;3.40;1.40;;;;;;;;;;5099720;28;20467;-78
2023/11/16 07:48:57;;;;;;;1.60;0.63;;;;;;;;;;5076303;28;20454;-78
2023/11/16 07:51:24;;;;;;;1.63;0.60;;;;;;;;;;5059156;28;20448;-79
2023/11/16 07:53:54;;;;;;;1.73;0.80;;;;;;;;;;5061469;28;20453;-79
2023/11/16 07:56:31;;;;;;;1.90;0.70;;;;;;;;;;5058119;28;20450;-81
2023/11/16 07:59:03;;;;;;;2.10;0.70;;;;;;;;;;5074117;28;20494;-78
2023/11/16 08:01:49;;;;;;;3.87;0.80;;;;;;;;;;5061592;28;20527;-78
2023/11/16 08:04:16;;;;;;;2.40;0.70;;;;;;;;;;5059710;28;20454;-78
2023/11/16 08:06:44;;;;;;;1.70;0.70;;;;;;;;;;5063026;28;20680;-79
2023/11/16 08:11:50;;;;;;;2.20;0.80;;;;;;;;;;4749038;26;20464;-77
2023/11/16 08:14:41;;;;;;;2.47;0.70;;;;;;;;;;5076328;28;20483;-78
2023/11/16 08:17:16;;;;;;;2.30;0.70;;;;;;;;;;5070387;28;20692;-78
2023/11/16 08:19:45;;;;;;;3.23;1.30;;;;;;;;;;5080807;28;20440;-79
2023/11/16 08:22:13;;;;;;;1.70;0.60;;;;;;;;;;5080952;28;20485;-78
2023/11/16 08:24:41;;;;;;;1.80;0.60;;;;;;;;;;5079754;28;20476;-77
2023/11/16 08:27:12;;;;;;;5.20;1.00;;;;;;;;;;5080661;28;20464;-78
2023/11/16 08:29:42;;;;;;;1.97;0.70;;;;;;;;;;5081157;28;20445;-79
2023/11/16 08:32:17;;;;;;;2.43;1.03;;;;;;;;;;5078831;28;20481;-79
2023/11/16 08:34:46;;;;;;;3.20;1.03;;;;;;;;;;5077297;28;21108;-78
2023/11/16 08:37:14;;;;;;;2.10;0.77;;;;;;;;;;5084300;28;20444;-78
2023/11/16 08:39:42;;;;;;;3.47;0.93;;;;;;;;;;5077451;28;20526;-79
2023/11/16 08:42:13;;;;;;;3.07;0.70;;;;;;;;;;5082701;28;20496;-78
2023/11/16 08:44:44;;;;;;;5.50;1.07;;;;;;;;;;5083022;28;20757;-79
2023/11/16 08:47:17;;;;;;;2.10;0.90;;;;;;;;;;5084719;28;20441;-78
2023/11/16 08:49:45;;;;;;;1.97;0.90;;;;;;;;;;5081720;28;20848;-80
2023/11/16 08:52:14;;;;;;;3.20;0.90;;;;;;;;;;5078958;28;20520;-81
2023/11/16 08:54:42;;;;;;;4.70;1.00;;;;;;;;;;5081116;28;20822;-77
2023/11/16 08:57:11;;;;;;;2.80;1.00;;;;;;;;;;5080159;28;20484;-80
2023/11/16 08:59:58;;;;;;;2.50;0.70;;;;;;;;;;5073731;28;20448;-80
2023/11/16 09:02:28;;;;;;;2.10;0.90;;;;;;;;;;5084003;28;20618;-79
2023/11/16 09:04:55;;;;;;;2.60;1.07;;;;;;;;;;5075765;28;20523;-78
2023/11/16 09:07:45;;;;;;;2.10;0.90;;;;;;;;;;5073994;28;21085;-78
2023/11/16 09:10:21;;;;;;;2.77;0.93;;;;;;;;;;5075551;28;20576;-78
2023/11/16 09:19:14;;;;;;;1.60;0.80;;;;;;;;;;5080573;22;20660;-75
2023/11/16 09:21:56;;;;;;;1.60;0.70;;;;;;;;;;5007585;28;20490;-75
2023/11/16 09:24:36;;;;;;;3.00;1.23;;;;;;;;;;5014145;28;20486;-75
2023/11/16 09:27:20;;;;;;;1.70;0.80;;;;;;;;;;5013254;28;20478;-74
2023/11/16 09:29:54;;;;;;;2.50;1.00;;;;;;;;;;5013590;28;20574;-76
2023/11/16 09:32:23;;;;;;;2.03;0.70;;;;;;;;;;5013762;28;20494;-75
2023/11/16 09:35:06;;;;;;;2.07;0.97;;;;;;;;;;5011898;28;20480;-75
2023/11/16 09:37:43;;;;;;;2.00;0.80;;;;;;;;;;5012904;28;20985;-76
2023/11/16 09:40:19;;;;;;;2.40;1.20;;;;;;;;;;5016972;28;20467;-73
2023/11/16 09:42:49;;;;;;;2.10;0.60;;;;;;;;;;5014166;28;20935;-77
2023/11/16 09:45:20;;;;;;;1.83;0.80;;;;;;;;;;5015105;28;20478;-75
2023/11/16 09:47:57;;;;;;;3.40;0.90;;;;;;;;;;5015549;28;20462;-75
2023/11/16 09:50:41;;;;;;;2.00;0.90;;;;;;;;;;5014893;28;20478;-75
2023/11/16 09:53:13;;;;;;;1.70;0.80;;;;;;;;;;5013602;28;20450;-74
2023/11/16 09:56:03;;;;;;;2.00;1.10;;;;;;;;;;5013848;28;20510;-75
2023/11/16 09:58:39;;;;;;;2.00;0.93;;;;;;;;;;5013993;28;20802;-76
2023/11/16 10:01:29;;;;;;;5.80;1.33;;;;;;;;;;5011493;28;20682;-76
2023/11/16 10:04:15;;;;;;;2.23;1.10;;;;;;;;;;5009328;28;20722;-74
2023/11/16 10:07:07;;;;;;;2.20;1.20;;;;;;;;;;4992452;28;20447;-76
2023/11/16 10:09:57;;;;;;;1.67;0.67;;;;;;;;;;5013429;28;20866;-77
2023/11/16 10:12:31;;;;;;;2.40;1.20;;;;;;;;;;5033314;28;20447;-75
2023/11/16 10:15:04;;;;;;;2.20;1.13;;;;;;;;;;5033073;28;20474;-75
2023/11/16 10:17:35;;;;;;;3.10;1.20;;;;;;;;;;5012799;28;20758;-76
2023/11/16 10:20:41;;;;;;;;;;;;;;;;;;;;;
2023/11/16 10:23:29;;;;;;;2.20;1.20;;;;;;;;;;4989549;28;20486;-76
2023/11/16 10:26:17;;;;;;;2.37;1.10;;;;;;;;;;5011644;28;20758;-75
2023/11/16 10:29:01;;;;;;;1.93;1.07;;;;;;;;;;5033257;28;20880;-75
2023/11/16 10:35:14;;;;;;;2.63;1.00;;;;;;;;;;5034406;28;20466;-75
2023/11/16 10:40:46;;;;;;;3.40;1.10;;;;;;;;;;5037714;28;20445;-75
2023/11/16 10:46:30;;;;;;;1.90;1.40;;;;;;;;;;5032760;28;21036;-74
2023/11/16 10:49:00;;;;;;;3.00;0.80;;;;;;;;;;5035815;28;20477;-73
2023/11/16 10:51:30;;;;;;;1.40;0.60;;;;;;;;;;5034591;28;20549;-73
2023/11/16 10:54:06;;;;;;;3.00;1.23;;;;;;;;;;5034422;28;20469;-76
2023/11/16 10:59:32;;;;;;;4.63;0.90;;;;;;;;;;5032775;28;20470;-77
2023/11/16 11:02:10;;;;;;;2.00;0.97;;;;;;;;;;5033224;28;20486;-74
2023/11/16 11:04:41;;;;;;;1.93;1.10;;;;;;;;;;5032941;28;20462;-76
2023/11/16 11:07:54;;;;;;;;;;;;;;;;;;;;;
2023/11/16 11:10:43;;;;;;;6.90;1.10;;;;;;;;;;5018591;28;20579;-76
2023/11/16 11:13:25;;;;;;;2.57;0.90;;;;;;;;;;5038858;28;20587;-75
2023/11/16 11:16:32;;;;;;;3.00;0.80;;;;;;;;;;5035315;28;20470;-75
2023/11/16 11:19:04;;;;;;;2.00;0.90;;;;;;;;;;5032465;28;20492;-75
2023/11/16 11:21:32;;;;;;;2.37;0.90;;;;;;;;;;5034855;28;20473;-75
2023/11/16 11:24:08;;;;;;;7.43;1.57;;;;;;;;;;5033641;28;20502;-75
2023/11/16 11:26:40;;;;;;;2.10;0.90;;;;;;;;;;5037054;28;20481;-76
2023/11/16 11:29:23;;;;;;;2.03;0.73;;;;;;;;;;5035543;28;21130;-74
2023/11/16 11:32:03;;;;;;;2.17;1.13;;;;;;;;;;5035243;28;20457;-75
2023/11/16 11:34:49;;;;;;;1.57;0.60;;;;;;;;;;5033523;28;20569;-77
2023/11/16 11:40:29;;;;;;;1.60;0.60;;;;;;;;;;5038079;28;20446;-75
2023/11/16 11:43:16;;;;;;;2.00;0.80;;;;;;;;;;5034996;28;20477;-77
2023/11/16 11:45:51;;;;;;;2.20;1.10;;;;;;;;;;5020219;28;20482;-74
2023/11/16 11:48:25;;;;;;;2.20;0.97;;;;;;;;;;5035176;28;20445;-76
2023/11/16 11:51:07;;;;;;;1.57;0.80;;;;;;;;;;5037361;28;20474;-76
2023/11/16 11:54:10;;;;;;;2.33;0.87;;;;;;;;;;5012365;28;20672;-76
2023/11/16 11:56:47;;;;;;;2.03;0.77;;;;;;;;;;5014800;28;20521;-75
2023/11/16 12:02:37;;;;;;;2.27;0.70;;;;;;;;;;5024796;28;20439;-74
2023/11/16 12:06:13;;;;;;;;;;;;;;;;;;;;;
2023/11/16 12:11:53;;;;;;;3.07;0.80;;;;;;;;;;4982647;28;20454;-76
2023/11/16 12:17:31;;;;;;;1.90;0.80;;;;;;;;;;5009109;28;21180;-76
2023/11/16 12:23:26;;;;;;;3.13;1.00;;;;;;;;;;5008787;28;20497;-76
2023/11/16 12:32:08;;;;;;;2.23;1.00;;;;;;;;;;4885702;29;20545;-75
2023/11/16 12:37:11;;;;;;;4.63;1.50;;;;;;;;;;5022532;28;20484;-74
2023/11/16 12:40:09;;;;;;;2.70;0.87;;;;;;;;;;5030287;28;20826;-75
2023/11/16 12:45:34;;;;;;;2.37;1.37;;;;;;;;;;5017641;28;20464;-75
2023/11/16 12:48:18;;;;;;;;;;;;;;;;;;;;;
2023/11/16 12:51:03;;;;;;;2.00;1.10;;;;;;;;;;5018567;28;20493;-76
2023/11/16 12:53:44;;;;;;;1.50;0.70;;;;;;;;;;5032664;28;20454;-76
2023/11/16 12:56:17;;;;;;;2.43;0.70;;;;;;;;;;5023895;28;20526;-74
2023/11/16 13:02:22;;;;;;;2.23;0.80;;;;;;;;;;5023812;28;21178;-76
2023/11/16 13:05:24;;;;;;;2.20;1.00;;;;;;;;;;5032345;28;20489;-76
2023/11/16 13:14:30;;;;;;;2.50;1.67;;;;;;;;;;4941558;28;20482;-77
2023/11/16 13:17:33;;;;;;;2.17;0.80;;;;;;;;;;5033948;28;20592;-76
2023/11/16 13:26:24;;;;;;;1.90;0.80;;;;;;;;;;5022277;28;20489;-75
2023/11/16 13:42:59;;;;;;;3.10;2.10;;;;;;;;;;1494263;26;20495;-78
2023/11/16 13:45:27;;;;;;;9.33;6.20;;;;;;;;;;5097956;28;20567;-79
2023/11/16 13:47:56;;;;;;;3.03;2.07;;;;;;;;;;5098273;28;20463;-79
2023/11/16 13:50:24;;;;;;;2.93;2.17;;;;;;;;;;5098271;28;20517;-79
2023/11/16 13:52:52;;;;;;;3.07;1.67;;;;;;;;;;5099484;28;20475;-79
2023/11/16 13:55:22;;;;;;;2.17;1.37;;;;;;;;;;5100292;28;20901;-79
2023/11/16 13:57:54;;;;;;;4.53;2.50;;;;;;;;;;5097414;28;20459;-80
2023/11/16 14:00:35;;;;;;;4.20;2.23;;;;;;;;;;5097963;28;20446;-80
2023/11/16 14:03:11;;;;;;;3.30;1.90;;;;;;;;;;5099287;28;20471;-79
2023/11/16 14:05:41;;;;;;;3.40;1.47;;;;;;;;;;5087617;28;20494;-80
2023/11/16 14:08:10;;;;;;;2.40;1.50;;;;;;;;;;5097732;28;20459;-78
2023/11/16 14:10:41;;;;;;;2.87;1.40;;;;;;;;;;5095600;28;20447;-78
2023/11/16 14:13:10;;;;;;;2.83;1.47;;;;;;;;;;5098543;28;20436;-79
2023/11/16 14:15:45;;;;;;;3.90;1.60;;;;;;;;;;5095766;28;20451;-79
2023/11/16 14:18:14;;;;;;;2.50;1.10;;;;;;;;;;5097128;28;20451;-79
2023/11/16 14:20:52;;;;;;;2.47;1.43;;;;;;;;;;5092860;28;20463;-78
2023/11/16 14:23:23;;;;;;;1.80;1.17;;;;;;;;;;5079803;28;20481;-79
2023/11/16 14:25:50;;;;;;;2.20;1.20;;;;;;;;;;5097009;28;20784;-79
2023/11/16 14:28:18;;;;;;;3.30;1.50;;;;;;;;;;5100679;28;20469;-80
2023/11/16 14:30:48;;;;;;;2.70;1.50;;;;;;;;;;5098318;28;20622;-79
2023/11/16 14:33:16;;;;;;;3.73;1.63;;;;;;;;;;5100591;28;20519;-79
2023/11/16 14:35:44;;;;;;;2.50;1.60;;;;;;;;;;5097334;28;20471;-80
2023/11/16 14:38:12;;;;;;;2.80;1.90;;;;;;;;;;5100028;28;20896;-77
2023/11/16 14:40:45;;;;;;;2.50;1.80;;;;;;;;;;5088350;28;20475;-79
2023/11/16 14:43:13;;;;;;;2.30;1.63;;;;;;;;;;5096722;28;20475;-77
2023/11/16 14:45:41;;;;;;;2.67;1.80;;;;;;;;;;5105113;28;20478;-79
2023/11/16 14:48:10;;;;;;;2.47;1.80;;;;;;;;;;5104011;28;20514;-79
2023/11/16 14:50:39;;;;;;;4.20;2.50;;;;;;;;;;5091430;28;20632;-79
2023/11/16 14:53:11;;;;;;;3.00;1.63;;;;;;;;;;5080102;28;20448;-79
2023/11/16 14:55:39;;;;;;;2.27;1.53;;;;;;;;;;5078841;28;20444;-79
2023/11/16 14:58:07;;;;;;;2.87;1.37;;;;;;;;;;5090599;28;20454;-79
2023/11/16 15:00:36;;;;;;;2.80;1.63;;;;;;;;;;5086209;28;20489;-80
2023/11/16 15:03:04;;;;;;;3.27;1.90;;;;;;;;;;5100365;28;20472;-79
2023/11/16 15:05:33;;;;;;;3.23;1.60;;;;;;;;;;5087128;28;20451;-79
2023/11/16 15:08:01;;;;;;;2.63;1.53;;;;;;;;;;5078292;28;20474;-78
2023/11/16 15:10:39;;;;;;;3.37;1.80;;;;;;;;;;5099203;28;20459;-78
2023/11/16 15:15:56;;;;;;;3.87;1.40;;;;;;;;;;5093450;28;20459;-78
2023/11/16 15:18:24;;;;;;;3.40;1.87;;;;;;;;;;5096596;28;20448;-79
2023/11/16 15:20:53;;;;;;;3.53;2.67;;;;;;;;;;5101087;28;20451;-79
2023/11/16 15:23:22;;;;;;;3.30;1.97;;;;;;;;;;5099344;28;20578;-78
2023/11/16 15:25:53;;;;;;;2.10;1.60;;;;;;;;;;5096277;28;20460;-79
2023/11/16 15:28:22;;;;;;;2.53;1.43;;;;;;;;;;5096765;28;20550;-78
2023/11/16 15:30:50;;;;;;;2.17;1.47;;;;;;;;;;5096727;28;20448;-79
2023/11/16 15:33:20;;;;;;;3.40;1.63;;;;;;;;;;5090852;28;20486;-79
2023/11/16 15:35:48;;;;;;;2.93;1.67;;;;;;;;;;5088673;28;20456;-79
2023/11/16 15:38:20;;;;;;;3.30;1.57;;;;;;;;;;5098929;28;20447;-79
2023/11/16 15:40:48;;;;;;;2.17;1.63;;;;;;;;;;5103027;28;20462;-79
2023/11/16 15:43:18;;;;;;;4.30;2.03;;;;;;;;;;5103039;28;20482;-79
2023/11/16 15:45:46;;;;;;;2.80;1.70;;;;;;;;;;5092364;28;20458;-82
2023/11/16 15:48:17;;;;;;;2.23;1.57;;;;;;;;;;5097084;28;20467;-79
2023/11/16 15:50:45;;;;;;;2.50;1.70;;;;;;;;;;5096446;28;20539;-78
2023/11/16 15:53:15;;;;;;;2.40;1.67;;;;;;;;;;5095998;28;20463;-79
2023/11/16 15:55:44;;;;;;;2.77;2.07;;;;;;;;;;5097283;28;20540;-80
2023/11/16 15:58:13;;;;;;;3.73;1.80;;;;;;;;;;5099244;28;20530;-80
2023/11/16 16:00:41;;;;;;;2.50;1.60;;;;;;;;;;5102004;28;20584;-79
2023/11/16 16:03:08;;;;;;;3.93;2.30;;;;;;;;;;5099004;28;20448;-80
2023/11/16 16:05:37;;;;;;;3.70;1.70;;;;;;;;;;5097862;28;20452;-79
2023/11/16 16:08:05;;;;;;;2.73;2.07;;;;;;;;;;5099991;28;20513;-79
2023/11/16 16:10:33;;;;;;;3.23;1.97;;;;;;;;;;5102334;28;20435;-78
2023/11/16 16:13:10;;;;;;;4.17;2.83;;;;;;;;;;5101784;28;20463;-78
2023/11/16 16:15:47;;;;;;;3.90;2.60;;;;;;;;;;5098950;28;20466;-77
2023/11/16 16:18:16;;;;;;;2.97;2.10;;;;;;;;;;5093105;28;21207;-77
2023/11/16 16:20:44;;;;;;;2.07;1.50;;;;;;;;;;5097614;28;20800;-77
2023/11/16 16:23:12;;;;;;;3.03;1.83;;;;;;;;;;5096609;28;20447;-79
2023/11/16 16:25:41;;;;;;;2.70;1.80;;;;;;;;;;5097909;28;20525;-77
2023/11/16 16:28:11;;;;;;;3.00;1.80;;;;;;;;;;5094789;28;20899;-77
2023/11/16 16:30:40;;;;;;;2.30;1.50;;;;;;;;;;5093420;28;20495;-78
2023/11/16 16:33:09;;;;;;;5.10;1.73;;;;;;;;;;5075147;28;20456;-78
2023/11/16 16:35:38;;;;;;;2.80;1.90;;;;;;;;;;5075298;28;20620;-78